Time;durP1;ratioP1;P1;durP2;ratioP2;P2;SDS_P1;SDS_P2;PMS_P1;PMS_P2;Temp;Humidity;BMP_temperature;BMP_pressure;BME280_temperature;BME280_humidity;BME280_pressure;Samples;Min_cycle;Max_cycle;Signal;HPM_P1;HPM_P2
2021/08/05 00:02:10;;;;;;;12.03;10.40;;;;;;;19.55;89.19;100394.36;1763344;81;21525;-75
2021/08/05 00:04:38;;;;;;;11.63;10.40;;;;;;;19.56;89.34;100395.38;1764600;81;21183;-75
2021/08/05 00:07:05;;;;;;;12.40;9.97;;;;;;;19.56;89.61;100395.38;1763582;81;22416;-76
2021/08/05 00:09:32;;;;;;;10.10;9.10;;;;;;;19.56;89.66;100393.23;1762291;81;21042;-75
2021/08/05 00:12:00;;;;;;;11.73;10.27;;;;;;;19.55;89.59;100391.09;1760729;79;21152;-75
2021/08/05 00:14:27;;;;;;;12.23;10.10;;;;;;;19.51;89.68;100394.17;1764575;81;21062;-74
2021/08/05 00:16:53;;;;;;;11.40;10.20;;;;;;;19.49;89.75;100382.09;1763613;81;22494;-75
2021/08/05 00:19:21;;;;;;;10.90;9.70;;;;;;;19.48;89.71;100391.31;1752999;81;21003;-73
2021/08/05 00:21:50;;;;;;;11.37;10.23;;;;;;;19.49;89.72;100383.45;1763866;81;20987;-73
2021/08/05 00:24:18;;;;;;;11.70;10.50;;;;;;;19.51;89.75;100382.55;1765903;81;21015;-74
2021/08/05 00:26:45;;;;;;;11.10;9.43;;;;;;;19.52;89.77;100376.83;1764861;81;21037;-75
2021/08/05 00:29:12;;;;;;;11.13;9.97;;;;;;;19.53;89.84;100375.70;1756862;81;20978;-73
2021/08/05 00:31:39;;;;;;;12.77;10.43;;;;;;;19.53;89.90;100372.20;1764149;81;20970;-75
2021/08/05 00:34:06;;;;;;;12.70;10.30;;;;;;;19.52;89.97;100373.33;1760633;81;20944;-74
2021/08/05 00:36:35;;;;;;;11.83;9.80;;;;;;;19.52;90.09;100377.39;1753929;81;21032;-74
2021/08/05 00:39:03;;;;;;;11.60;10.43;;;;;;;19.53;90.16;100372.99;1761925;81;21505;-75
2021/08/05 00:41:29;;;;;;;11.17;9.97;;;;;;;19.57;90.19;100371.79;1765261;79;21486;-75
2021/08/05 00:43:58;;;;;;;11.70;10.43;;;;;;;19.60;90.20;100371.94;1762163;81;21038;-73
2021/08/05 00:46:25;;;;;;;10.37;9.27;;;;;;;19.64;90.19;100371.58;1749905;79;21565;-73
2021/08/05 00:48:52;;;;;;;10.40;9.30;;;;;;;19.66;90.12;100363.91;1748112;81;21080;-73
2021/08/05 00:51:20;;;;;;;9.73;8.70;;;;;;;19.70;90.01;100364.62;1759811;81;21037;-74
2021/08/05 00:53:47;;;;;;;13.23;9.53;;;;;;;19.71;89.80;100357.54;1766613;81;21491;-74
2021/08/05 00:56:14;;;;;;;11.80;8.63;;;;;;;19.73;89.50;100353.94;1758144;81;21051;-75
2021/08/05 00:58:42;;;;;;;12.20;8.60;;;;;;;19.76;89.09;100349.78;1740262;81;21010;-74
2021/08/05 01:01:12;;;;;;;12.40;8.83;;;;;;;19.76;88.50;100347.87;1740981;80;21962;-74
2021/08/05 01:03:42;;;;;;;11.80;9.03;;;;;;;19.76;87.95;100350.58;1756563;81;20935;-75
2021/08/05 01:06:26;;;;;;;11.70;8.83;;;;;;;19.76;87.50;100344.37;1764729;81;20987;-74
2021/08/05 01:09:01;;;;;;;12.73;9.17;;;;;;;19.73;87.11;100345.80;1763139;81;21030;-74
2021/08/05 01:11:31;;;;;;;15.40;9.47;;;;;;;19.64;86.98;100350.44;1761939;79;21099;-74
2021/08/05 01:14:04;;;;;;;12.23;8.90;;;;;;;19.51;86.89;100340.56;1758433;79;21119;-75
2021/08/05 01:16:31;;;;;;;14.20;9.50;;;;;;;19.43;86.98;100345.68;1767566;81;21391;-73
2021/08/05 01:19:38;;;;;;;12.37;9.47;;;;;;;19.36;86.94;100341.31;1739974;82;21054;-74
2021/08/05 01:22:45;;;;;;;13.07;9.13;;;;;;;19.30;86.98;100341.24;1728310;81;21462;-73
2021/08/05 01:25:33;;;;;;;10.27;8.93;;;;;;;19.24;86.98;100335.75;1759452;81;21073;-72
2021/08/05 01:28:00;;;;;;;11.57;9.23;;;;;;;19.18;86.95;100336.49;1764309;81;23072;-72
2021/08/05 01:30:27;;;;;;;10.70;8.83;;;;;;;19.13;86.97;100333.14;1741620;81;21549;-74
2021/08/05 01:32:55;;;;;;;10.20;8.97;;;;;;;19.08;86.96;100335.44;1761081;81;20971;-71
2021/08/05 01:35:23;;;;;;;10.20;9.10;;;;;;;19.02;87.05;100334.03;1768703;81;21483;-72
2021/08/05 01:37:49;;;;;;;11.80;9.47;;;;;;;18.96;87.12;100338.00;1766698;81;21014;-71
2021/08/05 01:40:16;;;;;;;11.57;9.13;;;;;;;18.90;87.17;100337.36;1748161;81;21131;-72
2021/08/05 01:42:43;;;;;;;12.20;8.70;;;;;;;18.86;87.36;100337.77;1706956;81;21144;-71
2021/08/05 01:45:10;;;;;;;10.10;8.67;;;;;;;18.81;87.56;100330.34;1768914;81;20975;-72
2021/08/05 01:47:40;;;;;;;10.60;9.50;;;;;;;18.74;87.80;100325.41;1767679;81;21057;-72
2021/08/05 01:50:09;;;;;;;13.13;9.67;;;;;;;18.68;88.01;100322.02;1764927;81;21125;-72
2021/08/05 01:52:35;;;;;;;13.53;9.70;;;;;;;18.64;88.25;100320.28;1712906;81;21080;-72
2021/08/05 01:55:08;;;;;;;11.23;9.30;;;;;;;18.58;88.44;100325.59;1753925;81;21102;-72
2021/08/05 01:57:35;;;;;;;;;;;;;;;18.53;88.57;100325.77;1763486;81;21452;-72
2021/08/05 02:00:08;;;;;;;13.07;9.27;;;;;;;18.50;88.80;100325.83;1763351;81;20201;-72
2021/08/05 02:02:37;;;;;;;13.53;9.40;;;;;;;18.45;88.95;100328.11;1774758;80;21165;-70
2021/08/05 02:05:07;;;;;;;13.63;9.67;;;;;;;18.44;89.04;100317.63;1751074;81;21899;-72
2021/08/05 02:07:57;;;;;;;9.97;8.90;;;;;;;18.40;89.16;100320.16;1759906;81;21558;-72
2021/08/05 02:10:32;;;;;;;13.23;9.70;;;;;;;18.39;89.29;100317.20;1743448;81;21535;-71
2021/08/05 02:13:03;;;;;;;10.80;9.67;;;;;;;18.36;89.37;100316.50;1743611;81;20983;-73
2021/08/05 02:15:31;;;;;;;11.43;9.80;;;;;;;18.34;89.46;100315.22;1738215;82;21054;-74
2021/08/05 02:17:58;;;;;;;11.90;9.77;;;;;;;18.30;89.53;100320.46;1761575;81;21123;-72
2021/08/05 02:20:26;;;;;;;10.60;9.50;;;;;;;18.24;89.63;100309.55;1761087;81;21474;-71
2021/08/05 02:22:53;;;;;;;12.43;8.93;;;;;;;18.20;89.72;100314.79;1756679;81;21038;-71
2021/08/05 02:25:20;;;;;;;12.47;9.30;;;;;;;18.15;89.80;100314.92;1759735;81;21066;-71
2021/08/05 02:27:47;;;;;;;9.90;8.60;;;;;;;18.10;89.91;100318.31;1761706;81;21027;-72
2021/08/05 02:30:15;;;;;;;10.47;9.37;;;;;;;18.08;90.05;100317.84;1755113;79;21885;-71
2021/08/05 02:32:42;;;;;;;9.90;8.90;;;;;;;18.05;90.21;100313.86;1755559;79;21116;-72
2021/08/05 02:35:11;;;;;;;10.30;9.20;;;;;;;18.02;90.45;100316.62;1761287;81;21316;-74
2021/08/05 02:37:38;;;;;;;10.70;9.60;;;;;;;18.01;90.62;100319.09;1762157;81;20952;-71
2021/08/05 02:40:07;;;;;;;10.27;9.20;;;;;;;18.02;90.79;100313.92;1766993;81;21518;-71
2021/08/05 02:42:35;;;;;;;11.17;9.70;;;;;;;18.01;90.92;100312.34;1759282;81;21348;-71
2021/08/05 02:45:04;;;;;;;11.00;9.90;;;;;;;18.02;91.02;100313.92;1766954;81;20995;-72
2021/08/05 02:47:32;;;;;;;11.37;9.50;;;;;;;18.04;91.11;100313.06;1766388;81;21011;-72
2021/08/05 02:49:58;;;;;;;10.77;9.67;;;;;;;18.05;91.26;100314.65;1770641;81;20951;-72
2021/08/05 02:52:26;;;;;;;12.13;9.53;;;;;;;18.05;91.40;100317.35;1764981;79;21066;-72
2021/08/05 02:54:54;;;;;;;11.40;10.07;;;;;;;18.08;91.57;100312.44;1761322;81;21522;-72
2021/08/05 02:57:20;;;;;;;10.63;9.53;;;;;;;18.09;91.70;100313.47;1762297;81;21034;-72
2021/08/05 02:59:50;;;;;;;10.70;9.47;;;;;;;18.12;91.84;100306.64;1755674;81;21402;-72
2021/08/05 03:02:16;;;;;;;10.80;9.70;;;;;;;18.15;91.97;100308.72;1755634;81;21104;-72
2021/08/05 03:04:43;;;;;;;10.67;9.63;;;;;;;18.20;92.03;100309.95;1761087;81;21085;-70
2021/08/05 03:07:10;;;;;;;11.10;9.70;;;;;;;18.23;92.08;100308.76;1767272;81;21567;-71
2021/08/05 03:09:37;;;;;;;10.67;9.27;;;;;;;18.28;92.17;100304.54;1766862;81;20935;-71
2021/08/05 03:12:04;;;;;;;10.73;9.67;;;;;;;18.34;92.26;100309.25;1759983;81;20999;-72
2021/08/05 03:14:32;;;;;;;11.00;9.90;;;;;;;18.40;92.31;100303.94;1762441;79;21038;-70
2021/08/05 03:17:01;;;;;;;11.03;10.00;;;;;;;18.46;92.49;100297.27;1752337;81;20979;-71
2021/08/05 03:19:28;;;;;;;10.20;9.20;;;;;;;18.54;92.57;100303.01;1764403;81;21141;-71
2021/08/05 03:21:56;;;;;;;10.83;9.30;;;;;;;18.60;92.65;100291.72;1765989;81;21038;-70
2021/08/05 03:24:22;;;;;;;10.87;9.77;;;;;;;18.66;92.69;100289.66;1760133;81;21540;-71
2021/08/05 03:26:49;;;;;;;9.53;8.60;;;;;;;18.71;92.70;100294.34;1757966;81;20994;-70
2021/08/05 03:29:16;;;;;;;10.33;9.33;;;;;;;18.77;92.68;100300.98;1748308;81;21046;-71
2021/08/05 03:31:43;;;;;;;10.87;9.73;;;;;;;18.81;92.66;100302.73;1758467;81;21155;-72
2021/08/05 03:34:10;;;;;;;9.97;9.03;;;;;;;18.88;92.63;100298.19;1763428;79;21601;-72
2021/08/05 03:36:36;;;;;;;9.03;8.13;;;;;;;18.93;92.53;100296.69;1751573;81;21030;-71
2021/08/05 03:39:03;;;;;;;10.97;8.80;;;;;;;18.96;92.41;100299.55;1768498;81;21042;-71
2021/08/05 03:41:30;;;;;;;10.07;9.07;;;;;;;18.98;92.27;100291.10;1769735;81;21146;-71
2021/08/05 03:43:56;;;;;;;10.70;9.60;;;;;;;19.02;92.17;100290.72;1765584;81;21506;-70
2021/08/05 03:46:23;;;;;;;9.90;8.90;;;;;;;19.06;92.03;100294.94;1758652;81;21066;-71
2021/08/05 03:48:50;;;;;;;9.63;8.60;;;;;;;19.12;91.93;100291.74;1758580;81;20948;-71
2021/08/05 03:51:16;;;;;;;10.93;9.80;;;;;;;19.19;91.79;100298.02;1762597;81;21007;-70
2021/08/05 03:53:43;;;;;;;9.70;8.80;;;;;;;19.26;91.65;100292.91;1761436;81;21168;-71
2021/08/05 03:56:11;;;;;;;10.07;9.07;;;;;;;19.33;91.49;100294.56;1762001;81;20995;-71
2021/08/05 03:58:39;;;;;;;11.40;9.53;;;;;;;19.40;91.32;100298.92;1739156;80;20951;-71
2021/08/05 04:01:05;;;;;;;11.27;9.50;;;;;;;19.49;91.21;100292.70;1761895;81;20998;-72
2021/08/05 04:03:32;;;;;;;10.10;8.83;;;;;;;19.58;91.19;100296.98;1759034;81;21090;-71
2021/08/05 04:05:59;;;;;;;11.07;9.67;;;;;;;19.67;91.11;100291.55;1759443;79;21058;-71
2021/08/05 04:08:26;;;;;;;10.67;9.10;;;;;;;19.77;90.98;100295.81;1756770;81;21519;-71
2021/08/05 04:10:53;;;;;;;10.70;9.37;;;;;;;19.86;90.71;100297.38;1763194;81;21042;-71
2021/08/05 04:13:21;;;;;;;11.13;9.80;;;;;;;19.98;90.46;100290.48;1753509;81;21042;-72
2021/08/05 04:15:48;;;;;;;11.30;10.10;;;;;;;20.09;90.07;100287.63;1753825;79;21604;-71
2021/08/05 04:18:15;;;;;;;14.10;11.17;;;;;;;20.20;89.57;100287.47;1763588;81;21624;-72
2021/08/05 04:20:41;;;;;;;16.33;11.33;;;;;;;20.30;89.02;100291.19;1767109;81;21529;-71
2021/08/05 04:23:08;;;;;;;13.40;10.83;;;;;;;20.37;88.25;100291.45;1764004;81;20983;-71
2021/08/05 04:25:35;;;;;;;12.47;11.17;;;;;;;20.43;87.53;100280.39;1759329;81;21050;-71
2021/08/05 04:28:01;;;;;;;12.20;10.90;;;;;;;20.49;86.98;100283.94;1763980;79;21027;-72
2021/08/05 04:30:30;;;;;;;13.90;11.47;;;;;;;20.56;86.64;100286.15;1763930;81;20991;-72
2021/08/05 04:32:57;;;;;;;12.80;11.50;;;;;;;20.59;86.47;100282.78;1761611;81;21041;-72
2021/08/05 04:35:23;;;;;;;14.07;12.10;;;;;;;20.63;86.14;100290.48;1731212;81;21565;-72
2021/08/05 04:37:57;;;;;;;13.03;11.00;;;;;;;20.67;85.97;100282.50;1757211;81;20999;-72
2021/08/05 04:40:26;;;;;;;13.10;11.50;;;;;;;20.70;85.75;100283.98;1762754;81;21113;-72
2021/08/05 04:42:53;;;;;;;13.40;11.27;;;;;;;20.72;85.72;100280.36;1755631;80;21486;-71
2021/08/05 04:45:20;;;;;;;12.47;10.37;;;;;;;20.77;85.65;100285.59;1755703;81;21978;-71
2021/08/05 04:48:00;;;;;;;13.10;9.93;;;;;;;20.88;85.46;100286.55;1763083;81;20948;-72
2021/08/05 04:50:31;;;;;;;13.13;10.07;;;;;;;20.98;84.91;100284.78;1739333;81;21545;-71
2021/08/05 04:53:00;;;;;;;11.87;10.50;;;;;;;21.08;84.40;100278.93;1762489;81;21407;-71
2021/08/05 04:55:28;;;;;;;12.47;11.13;;;;;;;21.20;84.03;100284.41;1748405;81;21031;-72
2021/08/05 04:57:57;;;;;;;9.47;8.43;;;;;;;21.31;83.71;100286.92;1752702;81;21136;-71
2021/08/05 05:00:32;;;;;;;9.27;8.37;;;;;;;21.41;82.33;100289.81;1756198;81;21049;-71
2021/08/05 05:02:59;;;;;;;8.73;7.83;;;;;;;21.57;81.61;100284.52;1761174;81;21043;-71
2021/08/05 05:05:26;;;;;;;10.77;8.07;;;;;;;21.77;80.59;100277.41;1760099;79;21042;-73
2021/08/05 05:07:53;;;;;;;8.43;7.53;;;;;;;21.98;79.49;100271.84;1754673;81;21039;-72
2021/08/05 05:10:21;;;;;;;9.47;7.60;;;;;;;22.17;78.41;100273.45;1763961;81;21490;-72
2021/08/05 05:12:49;;;;;;;8.80;7.83;;;;;;;22.34;77.18;100277.06;1722762;82;21003;-73
2021/08/05 05:15:16;;;;;;;8.27;7.00;;;;;;;22.50;76.26;100276.57;1767658;79;20995;-72
2021/08/05 05:17:44;;;;;;;8.00;7.20;;;;;;;22.60;74.27;100274.73;1758547;81;21511;-71
2021/08/05 05:20:11;;;;;;;9.53;7.47;;;;;;;22.61;73.03;100275.55;1777759;80;21048;-71
2021/08/05 05:22:38;;;;;;;7.83;6.83;;;;;;;22.59;72.08;100275.88;1761303;81;21523;-72
2021/08/05 05:25:07;;;;;;;8.30;7.43;;;;;;;22.63;71.51;100275.98;1774374;79;21612;-72
2021/08/05 05:27:34;;;;;;;9.63;7.40;;;;;;;22.66;70.90;100278.80;1755870;81;21018;-72
2021/08/05 05:30:01;;;;;;;8.37;7.47;;;;;;;22.74;71.07;100274.91;1769440;81;21438;-72
2021/08/05 05:32:29;;;;;;;8.80;7.90;;;;;;;22.82;70.71;100282.16;1730580;82;21526;-71
2021/08/05 05:34:56;;;;;;;7.80;7.00;;;;;;;22.92;70.22;100281.66;1765051;79;21037;-72
2021/08/05 05:37:22;;;;;;;7.97;7.17;;;;;;;23.02;69.40;100278.47;1757948;79;21147;-71
2021/08/05 05:39:52;;;;;;;7.37;6.67;;;;;;;23.02;68.82;100272.23;1762061;79;21049;-73
2021/08/05 05:42:19;;;;;;;8.23;7.40;;;;;;;23.06;68.75;100278.56;1749550;81;21101;-72
2021/08/05 05:44:46;;;;;;;8.10;7.17;;;;;;;23.14;68.34;100280.35;1759181;81;21043;-71
2021/08/05 05:47:13;;;;;;;8.47;7.30;;;;;;;23.25;68.11;100278.69;1760676;81;21158;-70
2021/08/05 05:49:40;;;;;;;8.00;7.27;;;;;;;23.36;68.06;100277.60;1757348;81;21034;-71
2021/08/05 05:52:07;;;;;;;8.90;7.20;;;;;;;23.51;67.13;100273.32;1763452;81;21034;-71
2021/08/05 05:54:35;;;;;;;8.50;7.60;;;;;;;23.62;66.27;100275.16;1750258;81;21084;-71
2021/08/05 05:57:02;;;;;;;8.40;7.50;;;;;;;23.71;65.20;100277.75;1757675;79;21081;-71
2021/08/05 05:59:29;;;;;;;8.17;7.37;;;;;;;23.81;64.75;100277.79;1753640;81;21491;-71
2021/08/05 06:01:56;;;;;;;8.73;7.83;;;;;;;23.92;65.03;100276.09;1754790;81;21027;-71
2021/08/05 06:04:22;;;;;;;8.80;7.87;;;;;;;24.04;65.28;100280.09;1763929;81;21011;-71
2021/08/05 06:06:49;;;;;;;8.27;7.47;;;;;;;24.15;64.99;100285.78;1758780;81;21058;-72
2021/08/05 06:09:16;;;;;;;7.87;7.07;;;;;;;24.28;64.29;100287.28;1761235;81;21497;-73
2021/08/05 06:11:43;;;;;;;8.43;7.37;;;;;;;24.33;63.06;100287.56;1758760;81;21557;-71
2021/08/05 06:14:11;;;;;;;8.83;7.50;;;;;;;24.26;62.68;100283.31;1751169;79;21049;-72
2021/08/05 06:16:37;;;;;;;8.43;7.40;;;;;;;24.23;62.17;100279.94;1763119;81;21035;-70
2021/08/05 06:19:04;;;;;;;8.40;7.60;;;;;;;24.16;63.00;100284.66;1757632;81;21026;-73
2021/08/05 06:21:30;;;;;;;8.33;7.20;;;;;;;24.27;62.96;100272.61;1766000;81;20979;-71
2021/08/05 06:23:57;;;;;;;7.63;6.80;;;;;;;24.34;62.50;100273.55;1765794;81;21875;-70
2021/08/05 06:26:24;;;;;;;8.43;7.57;;;;;;;24.34;62.26;100272.76;1760929;79;21019;-71
2021/08/05 06:28:51;;;;;;;7.73;6.93;;;;;;;24.23;62.28;100275.27;1755854;79;20951;-71
2021/08/05 06:31:18;;;;;;;8.90;8.00;;;;;;;24.22;62.62;100277.78;1761045;79;20955;-71
2021/08/05 06:33:47;;;;;;;9.23;8.20;;;;;;;24.26;62.23;100265.00;1749418;79;21069;-72
2021/08/05 06:36:15;;;;;;;8.77;7.73;;;;;;;24.30;62.32;100268.59;1757915;79;21129;-73
2021/08/05 06:38:42;;;;;;;8.07;7.27;;;;;;;24.43;62.64;100266.56;1757524;79;21080;-73
2021/08/05 06:41:09;;;;;;;10.13;8.57;;;;;;;24.60;61.81;100265.92;1761342;79;21133;-73
2021/08/05 06:43:36;;;;;;;9.00;8.10;;;;;;;24.71;61.41;100262.83;1764355;79;21034;-72
2021/08/05 06:46:02;;;;;;;9.57;8.57;;;;;;;24.86;61.11;100261.19;1764378;81;21656;-72
2021/08/05 06:48:29;;;;;;;10.37;8.60;;;;;;;24.97;60.63;100262.16;1757857;79;21497;-72
2021/08/05 06:50:56;;;;;;;9.00;8.10;;;;;;;25.06;59.90;100264.10;1758213;81;20964;-72
2021/08/05 06:53:23;;;;;;;9.23;8.33;;;;;;;25.17;59.71;100261.03;1767792;79;21093;-73
2021/08/05 06:55:49;;;;;;;9.80;8.80;;;;;;;25.29;59.32;100260.06;1746326;81;20962;-72
2021/08/05 06:58:19;;;;;;;10.20;8.40;;;;;;;25.32;58.92;100257.18;1762644;79;21487;-71
2021/08/05 07:00:44;;;;;;;9.60;8.70;;;;;;;25.27;58.57;100259.62;1754565;79;21078;-71
2021/08/05 07:03:11;;;;;;;10.03;9.03;;;;;;;25.28;58.51;100252.23;1747309;79;21099;-71
2021/08/05 07:05:38;;;;;;;9.20;8.27;;;;;;;25.31;58.17;100248.77;1758771;79;21141;-72
2021/08/05 07:08:05;;;;;;;10.60;9.50;;;;;;;25.36;57.77;100241.63;1756366;79;21097;-71
2021/08/05 07:10:32;;;;;;;9.93;8.93;;;;;;;25.38;57.63;100238.74;1762670;79;21066;-73
2021/08/05 07:13:00;;;;;;;10.03;8.93;;;;;;;25.43;57.33;100239.00;1758901;79;21336;-72
2021/08/05 07:15:26;;;;;;;10.23;9.20;;;;;;;25.51;57.03;100242.08;1760792;79;21070;-72
2021/08/05 07:17:53;;;;;;;10.53;8.63;;;;;;;25.47;57.05;100236.56;1762734;79;21604;-72
2021/08/05 07:20:20;;;;;;;10.23;9.00;;;;;;;25.55;57.42;100235.30;1759032;79;21656;-72
2021/08/05 07:22:47;;;;;;;10.27;8.90;;;;;;;25.62;56.99;100231.31;1753647;79;21003;-72
2021/08/05 07:25:14;;;;;;;10.10;9.10;;;;;;;25.68;56.64;100229.84;1751328;79;21109;-73
2021/08/05 07:27:42;;;;;;;10.13;8.90;;;;;;;25.77;56.16;100232.33;1762194;79;21075;-72
2021/08/05 07:30:12;;;;;;;11.43;8.50;;;;;;;25.85;56.06;100227.20;1757938;79;21502;-73
2021/08/05 07:32:39;;;;;;;10.50;8.43;;;;;;;25.99;55.71;100221.92;1758193;79;21138;-73
2021/08/05 07:35:06;;;;;;;12.13;8.83;;;;;;;26.15;54.64;100220.38;1765743;79;21160;-73
2021/08/05 07:37:33;;;;;;;9.13;8.17;;;;;;;26.11;54.14;100220.34;1755999;79;21131;-72
2021/08/05 07:40:00;;;;;;;10.60;8.50;;;;;;;26.02;52.46;100214.34;1753497;79;21077;-72
2021/08/05 07:42:26;;;;;;;9.93;8.67;;;;;;;25.85;53.20;100211.56;1762784;81;21542;-73
2021/08/05 07:44:53;;;;;;;9.67;8.67;;;;;;;25.80;53.47;100213.79;1756213;81;21111;-72
2021/08/05 07:47:22;;;;;;;9.57;8.60;;;;;;;25.82;53.52;100212.88;1751873;81;21185;-74
2021/08/05 07:49:51;;;;;;;10.05;8.50;;;;;;;25.82;53.79;100212.30;1758071;79;21138;-73
2021/08/05 07:52:17;;;;;;;9.00;8.10;;;;;;;25.87;54.03;100209.27;1756156;81;21590;-72
2021/08/05 07:54:46;;;;;;;9.00;8.20;;;;;;;25.96;54.33;100202.95;1760097;79;21109;-72
2021/08/05 07:57:13;;;;;;;9.87;8.87;;;;;;;26.02;55.61;100214.92;1767035;81;21000;-73
2021/08/05 07:59:42;;;;;;;9.63;8.37;;;;;;;26.08;55.11;100201.13;1761725;79;21038;-73
2021/08/05 08:02:09;;;;;;;8.90;7.63;;;;;;;26.12;55.22;100201.97;1758585;79;21067;-73
2021/08/05 08:04:37;;;;;;;9.70;7.97;;;;;;;26.18;55.05;100199.11;1755660;81;21126;-73
2021/08/05 08:07:04;;;;;;;11.03;8.93;;;;;;;26.25;55.02;100205.27;1764903;81;21073;-72
2021/08/05 08:09:32;;;;;;;11.67;9.07;;;;;;;26.17;54.02;100201.07;1756878;79;21145;-74
2021/08/05 08:11:58;;;;;;;10.17;8.37;;;;;;;26.05;54.85;100209.50;1763898;79;21086;-72
2021/08/05 08:14:25;;;;;;;9.07;8.17;;;;;;;25.98;55.31;100194.94;1755446;79;21126;-73
2021/08/05 08:16:53;;;;;;;9.17;7.80;;;;;;;26.02;55.45;100199.87;1763490;79;21033;-72
2021/08/05 08:19:19;;;;;;;9.13;7.67;;;;;;;26.17;55.40;100196.18;1779170;79;21053;-73
2021/08/05 08:21:46;;;;;;;9.00;7.53;;;;;;;26.38;55.55;100187.43;1771480;79;21128;-72
2021/08/05 08:24:13;;;;;;;11.13;8.67;;;;;;;26.57;55.03;100186.52;1747088;80;21077;-74
2021/08/05 08:26:39;;;;;;;10.23;7.50;;;;;;;26.69;54.97;100186.27;1750858;81;21167;-73
2021/08/05 08:29:07;;;;;;;9.23;8.30;;;;;;;26.80;55.27;100183.05;1757631;80;21142;-73
2021/08/05 08:31:34;;;;;;;10.07;8.17;;;;;;;26.96;54.73;100188.30;1774366;79;21002;-74
2021/08/05 08:34:00;;;;;;;8.33;7.43;;;;;;;27.11;54.33;100188.64;1773433;79;21634;-74
2021/08/05 08:36:29;;;;;;;8.80;7.90;;;;;;;27.25;53.66;100179.77;1775068;79;21052;-73
2021/08/05 08:38:58;;;;;;;9.80;7.90;;;;;;;27.36;54.03;100184.75;1766140;81;21180;-74
2021/08/05 08:41:25;;;;;;;10.23;8.07;;;;;;;27.50;53.62;100178.58;1762385;79;21053;-72
2021/08/05 08:43:52;;;;;;;11.40;7.83;;;;;;;27.67;52.63;100179.86;1766152;81;21580;-72
2021/08/05 08:46:22;;;;;;;11.43;7.73;;;;;;;27.75;52.46;100179.34;1762994;81;21585;-74
2021/08/05 08:48:53;;;;;;;8.50;7.60;;;;;;;27.79;52.11;100177.44;1768648;81;21059;-73
2021/08/05 08:51:19;;;;;;;9.83;7.03;;;;;;;27.86;51.61;100171.98;1763666;79;21108;-72
2021/08/05 08:53:50;;;;;;;8.63;7.43;;;;;;;27.90;51.34;100174.74;1763356;81;21098;-72
2021/08/05 08:56:16;;;;;;;9.07;6.67;;;;;;;27.86;51.90;100175.31;1757970;79;21070;-72
2021/08/05 08:58:43;;;;;;;8.50;6.57;;;;;;;27.95;50.94;100170.27;1758141;81;21050;-72
2021/08/05 09:01:09;;;;;;;9.70;6.40;;;;;;;28.08;50.60;100170.14;1761387;81;21124;-70
2021/08/05 09:03:36;;;;;;;8.37;6.80;;;;;;;28.23;50.44;100163.55;1744880;81;21306;-72
2021/08/05 09:06:02;;;;;;;10.00;7.40;;;;;;;28.46;50.41;100170.70;1755964;81;21054;-73
2021/08/05 09:08:29;;;;;;;8.73;6.95;;;;;;;28.77;50.44;100160.97;1763234;81;21020;-71
2021/08/05 09:10:56;;;;;;;11.20;7.40;;;;;;;29.09;49.30;100161.03;1757637;81;21042;-70
2021/08/05 09:13:23;;;;;;;16.00;8.05;;;;;;;29.31;49.43;100163.77;1762821;81;21133;-72
2021/08/05 09:15:49;;;;;;;16.00;7.95;;;;;;;29.43;48.59;100157.88;1764845;81;21492;-71
2021/08/05 09:18:40;;;;;;;18.05;7.75;;;;;;;29.52;48.61;100161.01;1764140;79;21044;-72
2021/08/05 09:21:23;;;;;;;11.65;6.97;;;;;;;29.60;47.56;100161.80;1756744;81;21116;-73
2021/08/05 09:24:01;;;;;;;11.73;6.80;;;;;;;29.53;46.48;100159.81;1764484;81;21094;-73
2021/08/05 09:26:44;;;;;;;8.60;6.22;;;;;;;29.50;46.96;100160.61;1766045;81;21720;-72
2021/08/05 09:29:19;;;;;;;8.70;5.87;;;;;;;29.58;47.51;100158.05;1746509;81;21136;-74
2021/08/05 09:31:58;;;;;;;10.82;6.15;;;;;;;29.74;47.12;100157.63;1764019;79;21050;-72
2021/08/05 09:34:43;;;;;;;12.75;6.90;;;;;;;29.90;46.88;100159.36;1757253;81;21572;-72
2021/08/05 09:37:11;;;;;;;11.40;6.72;;;;;;;30.09;45.82;100163.63;1766148;81;21075;-74
2021/08/05 09:39:40;;;;;;;9.60;5.72;;;;;;;30.21;45.21;100156.93;1747540;79;21054;-74
2021/08/05 09:42:10;;;;;;;11.63;5.78;;;;;;;30.33;45.38;100155.08;1765116;79;21656;-74
2021/08/05 09:44:45;;;;;;;10.15;5.85;;;;;;;30.51;44.67;100150.86;1764414;81;26651;-76
2021/08/05 09:47:20;;;;;;;10.20;6.25;;;;;;;30.54;44.15;100145.93;1757291;81;21452;-71
2021/08/05 09:49:54;;;;;;;10.88;6.33;;;;;;;30.48;44.15;100150.30;1758170;80;21547;-72
2021/08/05 09:52:33;;;;;;;9.38;5.35;;;;;;;30.51;45.02;100145.35;1737424;81;21587;-73
2021/08/05 09:55:03;;;;;;;9.98;5.72;;;;;;;30.67;45.10;100149.57;1736691;80;21081;-75
2021/08/05 09:57:34;;;;;;;8.73;6.08;;;;;;;30.74;44.37;100137.14;1759380;80;21130;-73
2021/08/05 10:00:07;;;;;;;9.55;5.60;;;;;;;30.77;43.68;100141.87;1771747;79;21246;-73
2021/08/05 10:02:46;;;;;;;12.95;5.95;;;;;;;30.81;43.89;100139.88;1755684;81;21385;-75
2021/08/05 10:05:23;;;;;;;9.05;6.40;;;;;;;30.87;45.34;100142.39;1756663;81;21041;-73
2021/08/05 10:07:58;;;;;;;12.13;6.40;;;;;;;30.98;44.80;100141.70;1768540;81;21151;-72
2021/08/05 10:10:30;;;;;;;11.28;6.15;;;;;;;31.05;44.48;100134.74;1768783;81;21177;-71
2021/08/05 10:12:59;;;;;;;11.65;6.30;;;;;;;31.08;44.49;100131.17;1758861;81;21047;-74
2021/08/05 10:15:28;;;;;;;6.95;5.33;;;;;;;31.12;44.77;100138.03;1757239;81;21715;-76
2021/08/05 10:18:03;;;;;;;11.88;5.80;;;;;;;31.17;44.35;100127.17;1741484;81;21163;-71
2021/08/05 10:20:28;;;;;;;7.87;5.92;;;;;;;31.18;44.10;100135.03;1764841;81;21943;-72
2021/08/05 10:22:57;;;;;;;8.38;5.00;;;;;;;31.18;44.21;100128.73;1764652;81;21057;-72
2021/08/05 10:25:25;;;;;;;7.65;5.33;;;;;;;31.16;43.52;100127.77;1755303;81;21640;-72
2021/08/05 10:27:54;;;;;;;8.03;5.10;;;;;;;31.08;43.79;100124.87;1765770;81;21807;-73
2021/08/05 10:30:21;;;;;;;7.35;5.37;;;;;;;31.00;43.64;100120.03;1757857;81;21134;-71
2021/08/05 10:32:48;;;;;;;6.58;5.33;;;;;;;30.96;43.74;100110.20;1756103;79;22158;-75
2021/08/05 10:35:15;;;;;;;6.03;5.25;;;;;;;30.93;44.05;100114.58;1756604;79;21543;-73
2021/08/05 10:37:42;;;;;;;6.67;5.28;;;;;;;30.93;44.09;100109.06;1765822;81;21007;-73
2021/08/05 10:40:11;;;;;;;6.97;5.35;;;;;;;30.90;44.30;100105.73;1739814;81;21181;-73
2021/08/05 10:42:42;;;;;;;8.68;5.50;;;;;;;30.89;44.84;100103.37;1762314;81;21078;-74
2021/08/05 10:45:10;;;;;;;9.43;5.28;;;;;;;30.92;44.15;100103.34;1762769;81;21798;-74
2021/08/05 10:47:37;;;;;;;9.25;4.97;;;;;;;31.02;43.44;100102.45;1768049;81;21031;-75
2021/08/05 10:50:11;;;;;;;9.25;4.78;;;;;;;31.04;43.49;100100.09;1712833;82;21094;-74
2021/08/05 10:52:40;;;;;;;4.75;4.25;;;;;;;30.84;42.63;100090.81;1748936;81;21561;-75
2021/08/05 10:55:31;;;;;;;5.92;4.33;;;;;;;30.72;43.59;100085.75;1761077;81;20987;-77
2021/08/05 10:58:15;;;;;;;5.05;3.70;;;;;;;30.77;43.98;100091.66;1766515;81;21493;-79
2021/08/05 11:00:55;;;;;;;5.78;4.12;;;;;;;30.94;42.39;100090.53;1765706;81;21038;-74
2021/08/05 11:03:44;;;;;;;5.92;3.80;;;;;;;31.07;42.16;100087.46;1765351;81;21065;-75
2021/08/05 11:06:26;;;;;;;5.35;4.08;;;;;;;31.12;41.77;100090.36;1757111;81;21195;-77
2021/08/05 11:08:53;;;;;;;4.53;3.55;;;;;;;31.14;41.45;100090.75;1762551;81;21086;-74
2021/08/05 11:11:27;;;;;;;5.50;3.92;;;;;;;31.11;41.15;100088.80;1765546;81;21023;-75
2021/08/05 11:14:05;;;;;;;8.70;5.03;;;;;;;31.01;41.86;100091.84;1763247;79;21128;-74
2021/08/05 11:17:01;;;;;;;9.55;5.25;;;;;;;30.97;42.56;100090.50;1762635;81;21264;-75
2021/08/05 11:19:37;;;;;;;10.75;5.65;;;;;;;30.98;43.55;100082.41;1765184;79;21533;-76
2021/08/05 11:22:40;;;;;;;9.00;5.30;;;;;;;31.01;43.66;100082.97;1764576;79;21106;-77
2021/08/05 11:25:07;;;;;;;7.95;4.60;;;;;;;31.10;44.67;100072.85;1758601;79;21113;-75
2021/08/05 11:27:37;;;;;;;7.05;4.80;;;;;;;31.18;43.98;100073.56;1754920;79;21498;-74
2021/08/05 11:30:26;;;;;;;6.53;4.50;;;;;;;31.20;43.50;100069.80;1734663;81;21055;-75